^^
Grace C. Lehan Memorial Weather Station Historical Data
Daily Summary for April 13, 2022 Units:  Metric    English   Both
Daily Weekly Monthly Yearly
  High: Low: Average:
Temperature: 26.8 °C 19.2 °C 23.2 °C
Dew Point: 23.3 °C 14.6 °C 21.1 °C
Humidity: 96% 73% 89%
Wind Speed: 4.2km/h 0km/h 0.2km/h
Wind Gust: 17.7km/h - -
Wind- - SW
Pressure: 1008.4 hPa 1003.3 hPa -
Precipitation: 10.92 mm    
 
 
Tabular Data for April 13, 2022
Time Temperature Dew Point Pressure Wind Wind Speed Wind Gust Humidity Rainfall Rate (Hourly) solar
00:00 21.7 °C 20.3 °C 1008 hPa Calm     92% 0 mm 0 W/m2
00:09 21.6 °C 20.3 °C 1008.4 hPa Calm     92% 0 mm 0 W/m2
00:14 21.6 °C 20.2 °C 1008.4 hPa Calm     92% 0 mm 0 W/m2
00:19 21.6 °C 20.2 °C 1008.4 hPa Calm     92% 0 mm 0 W/m2
00:24 21.6 °C 20.3 °C 1008.4 hPa Calm     92.8% 0 mm 0 W/m2
00:29 21.6 °C 20.4 °C 1008 hPa Calm     93% 0 mm 0 W/m2
00:34 21.6 °C 20.4 °C 1008 hPa Calm     93% 0 mm 0 W/m2
00:39 21.6 °C 20.4 °C 1008 hPa Calm     93% 0 mm 0 W/m2
00:44 21.6 °C 20.4 °C 1008 hPa Calm     93% 0 mm 0 W/m2
00:49 21.6 °C 20.4 °C 1007.7 hPa Calm     93% 0 mm 0 W/m2
00:54 21.6 °C 20.4 °C 1007.7 hPa Calm     93% 0 mm 0 W/m2
00:59 21.6 °C 20.4 °C 1007.7 hPa Calm     93% 0 mm 0 W/m2
01:04 21.6 °C 20.4 °C 1007.7 hPa Calm     93% 0 mm 0 W/m2
01:09 21.6 °C 20.4 °C 1007.7 hPa Calm     93% 0 mm 0 W/m2
01:14 21.5 °C 20.3 °C 1007.7 hPa Calm     93% 0 mm 0 W/m2
01:19 21.5 °C 20.3 °C 1007.7 hPa Calm     93% 0 mm 0 W/m2
01:24 21.5 °C 20.3 °C 1007.7 hPa Calm     93.1% 0 mm 0 W/m2
01:29 21.5 °C 20.3 °C 1007.7 hPa Calm     93.2% 0 mm 0 W/m2
01:34 21.5 °C 20.3 °C 1007.7 hPa Calm     93% 0 mm 0 W/m2
01:39 21.5 °C 20.4 °C 1008 hPa Calm     93.8% 0 mm 0 W/m2
01:44 21.4 °C 20.4 °C 1008 hPa Calm     94% 0 mm 0 W/m2
01:49 21.5 °C 20.5 °C 1007.7 hPa Calm     94% 0 mm 0 W/m2
01:54 21.5 °C 20.5 °C 1007.7 hPa Calm     94% 0 mm 0 W/m2
01:59 21.5 °C 20.5 °C 1007.7 hPa Calm     94% 0 mm 0 W/m2
02:04 21.5 °C 20.5 °C 1007.7 hPa Calm     94% 0 mm 0 W/m2
02:09 21.5 °C 20.5 °C 1007.7 hPa Calm     94% 0 mm 0 W/m2
02:14 21.5 °C 20.5 °C 1007.7 hPa Calm     94% 0 mm 0 W/m2
02:19 21.5 °C 20.5 °C 1007.7 hPa Calm     94% 0 mm 0 W/m2
02:24 21.5 °C 20.5 °C 1007.7 hPa Calm     94% 0 mm 0 W/m2
02:29 21.5 °C 20.5 °C 1007.7 hPa Calm     94% 0 mm 0 W/m2
02:34 21.5 °C 20.5 °C 1007.7 hPa Calm     94% 0 mm 0 W/m2
02:39 21.5 °C 20.5 °C 1007.7 hPa Calm     94% 0 mm 0 W/m2
02:44 21.4 °C 20.4 °C 1007.3 hPa Calm     94% 0 mm 0 W/m2
02:49 21.4 °C 20.4 °C 1007.3 hPa Calm     94% 0 mm 0 W/m2
02:54 21.4 °C 20.4 °C 1007.3 hPa Calm     94% 0 mm 0 W/m2
02:59 21.4 °C 20.4 °C 1007.3 hPa Calm     94% 0 mm 0 W/m2
03:04 21.4 °C 20.4 °C 1007.3 hPa Calm     94% 0 mm 0 W/m2
03:09 21.3 °C 20.3 °C 1007.3 hPa Calm     94% 0 mm 0 W/m2
03:14 21.3 °C 20.3 °C 1007 hPa Calm     94% 0 mm 0 W/m2
03:19 21.3 °C 20.3 °C 1007 hPa Calm     94% 0 mm 0 W/m2
03:24 21.3 °C 20.3 °C 1007 hPa Calm     94% 0 mm 0 W/m2
03:29 21.3 °C 20.4 °C 1007 hPa Calm     94.2% 0 mm 0 W/m2
03:34 21.3 °C 20.4 °C 1007 hPa Calm     94.7% 0 mm 0 W/m2
03:39 21.3 °C 20.5 °C 1006.7 hPa Calm     95% 0 mm 0 W/m2
03:44 21.3 °C 20.5 °C 1006.7 hPa Calm     95% 0 mm 0 W/m2
03:49 21.3 °C 20.4 °C 1007 hPa Calm     95% 0 mm 0 W/m2
03:54 21.3 °C 20.4 °C 1006.7 hPa Calm     95% 0 mm 0 W/m2
03:59 21.3 °C 20.4 °C 1006.7 hPa Calm     95% 0 mm 0 W/m2
04:00 21.2 °C 20.4 °C 1006.7 hPa Calm     95% 0 mm 0 W/m2
04:09 21.2 °C 20.4 °C 1006.7 hPa Calm     95% 0 mm 0 W/m2
04:14 21.2 °C 20.2 °C 1006.7 hPa Calm     94.4% 0 mm 0 W/m2
04:19 21.1 °C 20.2 °C 1006.7 hPa Calm     94.5% 0 mm 0 W/m2
04:24 21.1 °C 20.3 °C 1007 hPa Calm     95% 0 mm 0 W/m2
04:29 21.1 °C 20.3 °C 1007 hPa Calm     95% 0 mm 0 W/m2
04:34 21.1 °C 20.2 °C 1007 hPa Calm     95% 0 mm 0 W/m2
04:39 21.1 °C 20.2 °C 1007 hPa Calm     95% 0 mm 0 W/m2
04:44 21.1 °C 20.2 °C 1007 hPa Calm     95% 0 mm 0 W/m2
04:49 21.1 °C 20.2 °C 1007 hPa Calm     95% 0 mm 0 W/m2
04:54 21.1 °C 20.3 °C 1007 hPa Calm     95% 0 mm 0 W/m2
04:59 21.1 °C 20.3 °C 1007 hPa Calm     95% 0 mm 0 W/m2
05:04 21.1 °C 20.3 °C 1006.7 hPa Calm     95% 0 mm 0 W/m2
05:09 21.1 °C 20.3 °C 1007 hPa Calm     95% 0.25 mm 0 W/m2
05:14 21.1 °C 20.3 °C 1007 hPa Calm     95% 0.25 mm 0 W/m2
05:19 21.2 °C 20.3 °C 1006.7 hPa Calm     95% 0.51 mm 0 W/m2
05:24 21.2 °C 20.3 °C 1006.7 hPa Calm     95% 0.76 mm 0 W/m2
05:29 21.2 °C 20.3 °C 1006.7 hPa Calm     95% 1.02 mm 0 W/m2
05:34 21.2 °C 20.3 °C 1007 hPa Calm     95% 1.52 mm 0 W/m2
05:39 21.2 °C 20.3 °C 1006.7 hPa Calm     95% 1.78 mm 0 W/m2
05:44 21.2 °C 20.3 °C 1006.7 hPa Calm     95% 1.78 mm 0 W/m2
05:49 21.2 °C 20.3 °C 1006.7 hPa Calm     95% 1.78 mm 0 W/m2
05:54 21.2 °C 20.3 °C 1006.7 hPa Calm     95% 2.03 mm 0 W/m2
05:59 21.2 °C 20.3 °C 1006.7 hPa Calm     95% 2.03 mm 0 W/m2
06:04 21.2 °C 20.3 °C 1006.7 hPa Calm     95% 2.29 mm 0 W/m2
06:09 21.2 °C 20.3 °C 1006.7 hPa Calm     95% 2.79 mm 0 W/m2
06:14 21.2 °C 20.3 °C 1007 hPa Calm     95% 3.3 mm 0 W/m2
06:19 21.2 °C 20.3 °C 1007 hPa Calm     95% 3.81 mm 0 W/m2
06:24 21.2 °C 20.3 °C 1007 hPa Calm     95% 4.32 mm 0 W/m2
06:29 21.2 °C 20.3 °C 1007 hPa Calm     95% 4.83 mm 0 W/m2
06:34 21.2 °C 20.4 °C 1007 hPa Calm     95% 4.83 mm 0 W/m2
06:39 21.2 °C 20.5 °C 1006.7 hPa Calm     95.7% 4.57 mm 0 W/m2
06:44 21.3 °C 20.6 °C 1007 hPa Calm     96% 5.08 mm 0 W/m2
06:49 21.3 °C 20.6 °C 1007.3 hPa Calm     96% 5.59 mm 0 W/m2
06:54 21.3 °C 20.6 °C 1007.3 hPa Calm     96% 5.84 mm 0 W/m2
06:59 21.3 °C 20.6 °C 1007 hPa Calm     96% 6.35 mm 0 W/m2
07:04 21.3 °C 20.7 °C 1006.7 hPa Calm     96% 6.35 mm 0 W/m2
07:09 21.3 °C 20.7 °C 1006.7 hPa Calm   1.6 km/h 96% 6.1 mm 0 W/m2
07:14 21.3 °C 20.7 °C 1006.7 hPa Calm   1.6 km/h 96% 6.35 mm 0 W/m2
07:19 21.3 °C 20.7 °C 1006.7 hPa Calm   1.6 km/h 96% 7.11 mm 0 W/m2
07:24 21.3 °C 20.7 °C 1006.7 hPa Calm   1.6 km/h 96% 7.87 mm 7 W/m2
07:29 21.3 °C 20.6 °C 1006.7 hPa Calm   1.6 km/h 96% 8.38 mm 12 W/m2
07:34 21.3 °C 20.7 °C 1006.7 hPa Calm   1.6 km/h 96% 8.38 mm 23 W/m2
07:39 21.3 °C 20.7 °C 1006.7 hPa Calm     96% 6.1 mm 28 W/m2
07:44 21.3 °C 20.7 °C 1006.7 hPa Calm     96% 6.1 mm 28 W/m2
07:49 21.3 °C 20.7 °C 1006.7 hPa Calm     96% 6.1 mm 35 W/m2
07:54 21.3 °C 20.7 °C 1006.3 hPa Calm     96% 6.1 mm 42 W/m2
07:59 21.3 °C 20.7 °C 1006.3 hPa Calm     96% 6.1 mm 49 W/m2
08:00 21.3 °C 20.7 °C 1006.3 hPa Calm     96% 6.1 mm 49 W/m2
08:09 21.4 °C 20.7 °C 1006.7 hPa Calm     96% 6.1 mm 51 W/m2
08:14 21.4 °C 20.7 °C 1006.7 hPa Calm     96% 6.1 mm 58 W/m2
08:19 21.4 °C 20.7 °C 1006.7 hPa Calm     96% 6.1 mm 58 W/m2
08:24 21.4 °C 20.8 °C 1006.7 hPa Calm     96% 6.1 mm 86 W/m2
08:29 21.6 °C 20.9 °C 1006.7 hPa Calm     96% 6.1 mm 86 W/m2
08:34 21.6 °C 21 °C 1007 hPa Calm     96% 6.1 mm 46 W/m2
08:39 21.7 °C 21 °C 1007 hPa Calm     96% 0.25 mm 54 W/m2
08:44 21.7 °C 21 °C 1007 hPa Calm     96% 0.25 mm 86 W/m2
08:49 21.7 °C 21.1 °C 1007 hPa Calm     96% 0.25 mm 109 W/m2
08:54 21.7 °C 21.1 °C 1007 hPa Calm     96% 0.25 mm 113 W/m2
08:59 21.8 °C 21.1 °C 1007.3 hPa Calm     96% 0.25 mm 118 W/m2
09:04 21.9 °C 21.2 °C 1007.3 hPa Calm     96% 0.25 mm 114 W/m2
09:09 21.9 °C 21.3 °C 1007.3 hPa Calm     96% 0 mm 65 W/m2
09:14 21.9 °C 21.3 °C 1007.3 hPa Calm     96% 0 mm 74 W/m2
09:19 22 °C 21.3 °C 1007.3 hPa Calm     96% 0 mm 81 W/m2
09:24 22 °C 21.3 °C 1007.3 hPa Calm     96% 0 mm 98 W/m2
09:29 22 °C 21.3 °C 1007.3 hPa Calm     96% 0 mm 128 W/m2
09:34 21.9 °C 21.3 °C 1007.3 hPa Calm     96% 0 mm 132 W/m2
09:39 22 °C 21.3 °C 1007.3 hPa Calm     96% 0 mm 163 W/m2
09:44 22.1 °C 21.4 °C 1007.3 hPa Calm     96% 0 mm 163 W/m2
09:49 22.2 °C 21.5 °C 1007.3 hPa Calm     96% 0 mm 167 W/m2
09:54 22.3 °C 21.6 °C 1007.3 hPa Calm     96% 0 mm 403 W/m2
09:59 22.3 °C 21.7 °C 1007.3 hPa Calm     96% 0 mm 292 W/m2
10:04 22.3 °C 21.7 °C 1007.3 hPa Calm     96% 0 mm 220 W/m2
10:09 22.3 °C 21.6 °C 1007.3 hPa Calm     96% 0 mm 255 W/m2
10:14 22.3 °C 21.6 °C 1007.3 hPa Calm     96% 0 mm 244 W/m2
10:19 22.4 °C 21.7 °C 1007.3 hPa Calm   1.6 km/h 96% 0 mm 343 W/m2
10:24 22.4 °C 21.8 °C 1007 hPa Calm   1.6 km/h 96% 0 mm 290 W/m2
10:29 22.6 °C 21.9 °C 1007 hPa Calm   1.6 km/h 96% 0 mm 322 W/m2
10:34 22.7 °C 22 °C 1007 hPa Calm   1.6 km/h 96% 0 mm 322 W/m2
10:39 22.7 °C 22 °C 1007 hPa Calm     96% 0 mm 330 W/m2
10:44 22.8 °C 22.1 °C 1007 hPa Calm     96% 0 mm 316 W/m2
10:49 22.8 °C 22.2 °C 1007 hPa Calm     96% 0 mm 316 W/m2
10:54 22.8 °C 22.2 °C 1007 hPa Calm     96% 0 mm 311 W/m2
10:59 22.9 °C 22.1 °C 1007 hPa Calm     95.1% 0 mm 367 W/m2
11:04 23.1 °C 22.2 °C 1006.7 hPa Calm     95% 0 mm 334 W/m2
11:09 23.2 °C 22.3 °C 1006.7 hPa Calm     95% 0 mm 334 W/m2
11:14 23.3 °C 22.3 °C 1006.7 hPa Calm     94% 0 mm 860 W/m2
11:19 23.7 °C 22.6 °C 1006.7 hPa Calm   1.6 km/h 93.9% 0 mm 902 W/m2
11:24 23.8 °C 22.3 °C 1006.7 hPa Calm   1.6 km/h 91.4% 0 mm 396 W/m2
11:29 24.1 °C 22.6 °C 1006.7 hPa Calm   1.6 km/h 90.9% 0 mm 404 W/m2
11:34 24.3 °C 22.6 °C 1006.7 hPa Calm   1.6 km/h 89.7% 0 mm 360 W/m2
11:39 24.4 °C 22.2 °C 1006.7 hPa Calm   3.2 km/h 87.1% 0 mm 364 W/m2
11:44 24.6 °C 22.2 °C 1006.7 hPa NW 0.3 km/h 6.4 km/h 86.5% 0 mm 425 W/m2
11:49 24.6 °C 22.2 °C 1006.3 hPa Calm   6.4 km/h 86.4% 0 mm 424 W/m2
11:54 24.8 °C 22.5 °C 1006.3 hPa Calm   6.4 km/h 87.1% 0 mm 464 W/m2
11:59 24.9 °C 22.3 °C 1006.3 hPa Calm   6.4 km/h 85.1% 0 mm 378 W/m2
12:00 25 °C 22.1 °C 1006.3 hPa Calm   6.4 km/h 84% 0 mm 378 W/m2
12:09 25.1 °C 22.2 °C 1006.3 hPa Calm     84% 0 mm 413 W/m2
12:14 25.3 °C 22.4 °C 1006 hPa NW 0.3 km/h 4.8 km/h 84% 0 mm 385 W/m2
12:19 25.4 °C 22.2 °C 1006 hPa Calm   4.8 km/h 82.8% 0 mm 360 W/m2
12:24 25.4 °C 22.4 °C 1006 hPa Calm   4.8 km/h 83.3% 0 mm 257 W/m2
12:29 25.5 °C 22.4 °C 1006 hPa Calm   4.8 km/h 82.7% 0 mm 153 W/m2
12:34 25.5 °C 22.2 °C 1006 hPa NW 0.2 km/h 4.8 km/h 82% 0 mm 158 W/m2
12:39 25.4 °C 22.1 °C 1006 hPa NW 0.5 km/h 6.4 km/h 82% 0 mm 193 W/m2
12:44 25.3 °C 22.1 °C 1005.6 hPa Calm   6.4 km/h 82.1% 0 mm 209 W/m2
12:49 25.3 °C 22.2 °C 1005.6 hPa Calm   6.4 km/h 83% 0 mm 311 W/m2
12:54 25.4 °C 22.3 °C 1005.6 hPa Calm   6.4 km/h 83% 0 mm 322 W/m2
12:59 25.4 °C 22.4 °C 1005.6 hPa Calm   6.4 km/h 83% 0 mm 302 W/m2
13:04 25.5 °C 22.4 °C 1006 hPa NNW 0.5 km/h 6.4 km/h 82.9% 0 mm 179 W/m2
13:09 25.5 °C 22.4 °C 1005.6 hPa North 0.2 km/h 4.8 km/h 82.8% 0 mm 183 W/m2
13:14 25.4 °C 22.4 °C 1005.6 hPa Calm   4.8 km/h 83% 0 mm 185 W/m2
13:19 25.4 °C 22.4 °C 1005.6 hPa Calm   4.8 km/h 83.5% 0 mm 160 W/m2
13:24 25.4 °C 22.3 °C 1005.6 hPa Calm   4.8 km/h 83% 0 mm 155 W/m2
13:29 25.4 °C 22.5 °C 1005.6 hPa Calm   4.8 km/h 83.7% 0 mm 292 W/m2
13:34 25.4 °C 22.4 °C 1005.6 hPa Calm   4.8 km/h 83.3% 0 mm 292 W/m2
13:39 25.5 °C 22.4 °C 1005.6 hPa NNE 0.2 km/h 3.2 km/h 83% 0 mm 223 W/m2
13:44 25.5 °C 22.4 °C 1005.6 hPa Calm   3.2 km/h 83% 0 mm 281 W/m2
13:49 25.6 °C 22.4 °C 1005.3 hPa Calm   3.2 km/h 83% 0 mm 320 W/m2
13:54 25.6 °C 22.5 °C 1005.3 hPa Calm   3.2 km/h 83% 0 mm 325 W/m2
13:59 25.8 °C 22.8 °C 1005.3 hPa Calm   3.2 km/h 83.5% 0 mm 313 W/m2
14:04 25.9 °C 22.8 °C 1005.3 hPa Calm   3.2 km/h 83% 0 mm 234 W/m2
14:09 25.9 °C 22.6 °C 1005.3 hPa NE 0.2 km/h 1.6 km/h 82% 0 mm 200 W/m2
14:14 25.9 °C 22.6 °C 1005.3 hPa ENE 0.2 km/h 4.8 km/h 82% 0 mm 186 W/m2
14:19 25.9 °C 22.6 °C 1005.3 hPa Calm   4.8 km/h 82% 0 mm 165 W/m2
14:24 25.9 °C 22.6 °C 1005 hPa Calm   4.8 km/h 82% 0 mm 104 W/m2
14:29 25.8 °C 22.6 °C 1005 hPa Calm   4.8 km/h 82% 0 mm 244 W/m2
14:34 25.8 °C 22.7 °C 1005 hPa Calm   4.8 km/h 82.6% 0 mm 309 W/m2
14:39 25.9 °C 22.8 °C 1004.6 hPa ENE 0.5 km/h 6.4 km/h 83% 0 mm 302 W/m2
14:44 26.1 °C 22.8 °C 1004.6 hPa Calm   6.4 km/h 82.5% 0 mm 360 W/m2
14:49 26.2 °C 22.8 °C 1004.6 hPa ENE 0.3 km/h 6.4 km/h 82% 0 mm 236 W/m2
14:54 26.2 °C 22.9 °C 1004.6 hPa Calm   6.4 km/h 82% 0 mm 475 W/m2
14:59 26.3 °C 22.9 °C 1004.6 hPa East 0.2 km/h 6.4 km/h 82% 0 mm 475 W/m2
15:04 26.4 °C 23.1 °C 1004.6 hPa South 0.3 km/h 6.4 km/h 82% 0 mm 744 W/m2
15:09 26.6 °C 23.1 °C 1004.3 hPa Calm   6.4 km/h 81.3% 0 mm 666 W/m2
15:14 26.7 °C 23.2 °C 1004.3 hPa Calm   6.4 km/h 81% 0 mm 174 W/m2
15:19 26.7 °C 23 °C 1004.3 hPa South 0.2 km/h 6.4 km/h 80% 0 mm 162 W/m2
15:24 26.7 °C 23.1 °C 1004.3 hPa Calm   6.4 km/h 80.6% 0 mm 163 W/m2
15:29 26.6 °C 22.9 °C 1004.3 hPa SE 0.3 km/h 6.4 km/h 80.1% 0 mm 260 W/m2
15:34 26.7 °C 23.2 °C 1004.3 hPa SE 0.2 km/h 8 km/h 81.2% 0 mm 216 W/m2
15:39 26.7 °C 23.1 °C 1004.3 hPa SE 0.3 km/h 8 km/h 80.8% 0 mm 102 W/m2
15:44 26.6 °C 22.9 °C 1004.3 hPa SE 0.2 km/h 8 km/h 80.5% 0 mm 733 W/m2
15:49 26.7 °C 23.3 °C 1004.3 hPa SW 0.2 km/h 8 km/h 81.7% 0 mm 592 W/m2
15:54 26.8 °C 23.2 °C 1003.9 hPa SE 0.5 km/h 8 km/h 80.9% 0 mm 135 W/m2
15:59 26.7 °C 23 °C 1003.9 hPa South 0.2 km/h 8 km/h 80.3% 0 mm 123 W/m2
16:09 26.6 °C 23 °C 1003.9 hPa ESE 0.8 km/h 8 km/h 81% 0 mm 128 W/m2
16:14 26.4 °C 23 °C 1003.9 hPa Calm   8 km/h 81.3% 0 mm 176 W/m2
16:19 26.4 °C 23.1 °C 1003.9 hPa Calm   8 km/h 82% 0 mm 171 W/m2
16:24 26.4 °C 23.1 °C 1003.9 hPa Calm   8 km/h 82% 0 mm 162 W/m2
16:29 26.5 °C 23.2 °C 1003.6 hPa Calm   8 km/h 82.2% 0 mm 171 W/m2
16:34 26.6 °C 23.2 °C 1003.6 hPa ESE 1 km/h 8 km/h 82% 0 mm 200 W/m2
16:39 26.7 °C 23.3 °C 1003.6 hPa ESE 0.3 km/h 8 km/h 82.2% 0 mm 118 W/m2
16:44 26.7 °C 23.3 °C 1003.6 hPa SE 0.2 km/h 8 km/h 82% 0 mm 104 W/m2
16:49 26.6 °C 23.3 °C 1003.6 hPa SE 0.8 km/h 8 km/h 82% 0 mm 90 W/m2
16:54 26.5 °C 23.2 °C 1003.6 hPa SE 1.9 km/h 9.7 km/h 82% 0 mm 102 W/m2
16:59 26.4 °C 23.1 °C 1003.3 hPa ESE 0.2 km/h 9.7 km/h 82% 0 mm 95 W/m2
17:04 26.4 °C 23.1 °C 1003.3 hPa South 0.2 km/h 9.7 km/h 82.3% 0 mm 139 W/m2
17:09 26.4 °C 23.3 °C 1003.3 hPa WSW 0.3 km/h 6.4 km/h 83% 0 mm 141 W/m2
17:14 26.4 °C 23.3 °C 1003.3 hPa Calm   6.4 km/h 83% 0 mm 149 W/m2
17:19 26.4 °C 23.3 °C 1003.3 hPa Calm   6.4 km/h 83% 0 mm 90 W/m2
17:24 26.4 °C 23.3 °C 1003.6 hPa Calm   6.4 km/h 83% 0 mm 79 W/m2
17:29 26.4 °C 23.3 °C 1003.6 hPa Calm   6.4 km/h 83% 0 mm 77 W/m2
17:34 26.4 °C 23.3 °C 1003.6 hPa Calm   6.4 km/h 83% 0 mm 104 W/m2
17:39 26.3 °C 23.2 °C 1003.6 hPa Calm     83% 0 mm 109 W/m2
17:44 26.3 °C 23.2 °C 1003.6 hPa Calm     83% 0 mm 95 W/m2
17:49 26.3 °C 23.2 °C 1003.6 hPa Calm     83% 0 mm 93 W/m2
17:54 26.3 °C 23.1 °C 1003.6 hPa Calm     82.8% 0 mm 93 W/m2
17:59 26.2 °C 22.9 °C 1003.6 hPa SW 0.3 km/h 4.8 km/h 82% 0 mm 98 W/m2
18:04 26.2 °C 22.7 °C 1003.6 hPa Calm   4.8 km/h 81% 0 mm 62 W/m2
18:09 26.2 °C 22.7 °C 1003.6 hPa South 0.2 km/h 4.8 km/h 81% 0 mm 39 W/m2
18:14 26.1 °C 22.6 °C 1003.6 hPa South 0.2 km/h 4.8 km/h 81% 0 mm 35 W/m2
18:19 26.1 °C 22.6 °C 1003.6 hPa Calm   4.8 km/h 81% 0 mm 25 W/m2
18:24 26 °C 22.4 °C 1003.6 hPa Calm   4.8 km/h 81% 0 mm 23 W/m2
18:29 25.9 °C 22.4 °C 1003.6 hPa Calm   4.8 km/h 81% 0 mm 9 W/m2
18:34 25.8 °C 22.3 °C 1003.9 hPa Calm   4.8 km/h 81.2% 0 mm 7 W/m2
18:39 25.7 °C 22.4 °C 1003.9 hPa Calm     82% 0 mm 5 W/m2
18:44 25.6 °C 22.3 °C 1003.9 hPa Calm     82% 0 mm 0 W/m2
18:49 25.6 °C 22.3 °C 1003.9 hPa Calm   1.6 km/h 82.1% 0 mm 0 W/m2
18:54 25.5 °C 22.4 °C 1003.9 hPa Calm   1.6 km/h 83% 0 mm 0 W/m2
18:59 25.4 °C 22.4 °C 1003.9 hPa Calm   1.6 km/h 83.6% 0 mm 0 W/m2
19:04 25.4 °C 22.5 °C 1003.9 hPa Calm   1.6 km/h 84% 0 mm 0 W/m2
19:09 25.3 °C 22.4 °C 1003.9 hPa Calm     84.2% 0 mm 0 W/m2
19:14 25.2 °C 22.6 °C 1003.9 hPa Calm     85% 0 mm 0 W/m2
19:19 25.2 °C 22.4 °C 1003.9 hPa Calm   4.8 km/h 85% 0 mm 0 W/m2
19:24 25.1 °C 22.4 °C 1003.9 hPa Calm   4.8 km/h 85% 0 mm 0 W/m2
19:29 25 °C 22.5 °C 1004.3 hPa South 0.2 km/h 4.8 km/h 85.9% 0 mm 0 W/m2
19:34 24.9 °C 22.4 °C 1004.3 hPa Calm   4.8 km/h 86% 0 mm 0 W/m2
19:39 24.9 °C 22.4 °C 1004.3 hPa Calm     86% 0 mm 0 W/m2
19:44 24.8 °C 22.3 °C 1004.3 hPa Calm     86% 0 mm 0 W/m2
19:49 24.7 °C 22.3 °C 1004.6 hPa West 2.7 km/h 14.5 km/h 86.3% 0 mm 0 W/m2
19:54 24.6 °C 21.9 °C 1004.6 hPa West 2.6 km/h 14.5 km/h 85.5% 0 mm 0 W/m2
19:59 24.3 °C 21.7 °C 1004.6 hPa West 0.5 km/h 14.5 km/h 85% 0 mm 0 W/m2
20:00 24.3 °C 21.6 °C 1004.6 hPa Calm   14.5 km/h 85% 0 mm 0 W/m2
20:09 24.2 °C 21.5 °C 1005 hPa West 1 km/h 3.2 km/h 85% 0 mm 0 W/m2
20:14 24.1 °C 21.4 °C 1005 hPa West 1.9 km/h 8 km/h 85% 0 mm 0 W/m2
20:19 24 °C 21.3 °C 1005 hPa WNW 1.9 km/h 11.3 km/h 84.8% 0 mm 0 W/m2
20:24 23.9 °C 21 °C 1005 hPa WNW 1.8 km/h 11.3 km/h 84% 0 mm 0 W/m2
20:29 23.7 °C 20.8 °C 1005 hPa WNW 1.9 km/h 11.3 km/h 84% 0 mm 0 W/m2
20:34 23.6 °C 20.7 °C 1005.6 hPa Calm   11.3 km/h 84% 0 mm 0 W/m2
20:39 23.5 °C 20.6 °C 1005.6 hPa West 1.1 km/h 8 km/h 84% 0 mm 0 W/m2
20:44 23.4 °C 20.5 °C 1005.6 hPa Calm   8 km/h 84% 0 mm 0 W/m2
20:49 23.3 °C 20.4 °C 1006 hPa Calm   8 km/h 84% 0 mm 0 W/m2
20:54 23.2 °C 20.4 °C 1006 hPa Calm   8 km/h 84.2% 0 mm 0 W/m2
20:59 23.1 °C 20.4 °C 1006 hPa Calm   8 km/h 85% 0 mm 0 W/m2
21:04 23 °C 20.4 °C 1006 hPa Calm   8 km/h 85% 0 mm 0 W/m2
21:09 22.9 °C 20.3 °C 1006 hPa Calm     85% 0 mm 0 W/m2
21:14 22.8 °C 20.2 °C 1006 hPa Calm     85.2% 0 mm 0 W/m2
21:19 22.8 °C 20.2 °C 1006 hPa Calm     85.5% 0 mm 0 W/m2
21:24 22.7 °C 20.2 °C 1006 hPa Calm     86% 0 mm 0 W/m2
21:29 22.6 °C 20.2 °C 1006.3 hPa Calm     86% 0 mm 0 W/m2
21:34 22.6 °C 20.2 °C 1006.3 hPa Calm     86.3% 0 mm 0 W/m2
21:39 22.4 °C 20.2 °C 1006.3 hPa Calm     87% 0 mm 0 W/m2
21:44 22.4 °C 20.1 °C 1006.3 hPa Calm     87% 0 mm 0 W/m2
21:49 22.3 °C 20 °C 1006.3 hPa Calm     87% 0 mm 0 W/m2
21:54 22.2 °C 19.9 °C 1006.3 hPa Calm     87% 0 mm 0 W/m2
21:59 22.1 °C 19.8 °C 1006.3 hPa Calm     87% 0 mm 0 W/m2
22:04 22 °C 19.8 °C 1006.3 hPa Calm   1.6 km/h 87.7% 0 mm 0 W/m2
22:09 21.9 °C 19.8 °C 1006.3 hPa WNW 0.3 km/h 8 km/h 88% 0 mm 0 W/m2
22:14 21.8 °C 19.8 °C 1006.3 hPa WNW 0.2 km/h 8 km/h 88% 0 mm 0 W/m2
22:19 21.8 °C 19.7 °C 1006.3 hPa NW 2.4 km/h 9.7 km/h 87.9% 0 mm 0 W/m2
22:24 21.6 °C 19.2 °C 1006.3 hPa NW 3.2 km/h 16.1 km/h 86.4% 0 mm 0 W/m2
22:29 21.4 °C 18.9 °C 1006.3 hPa NW 1.1 km/h 16.1 km/h 85.3% 0 mm 0 W/m2
22:34 21.3 °C 18.6 °C 1006.3 hPa WNW 3.4 km/h 16.1 km/h 84.4% 0 mm 0 W/m2
22:39 21.2 °C 18 °C 1006.3 hPa West 4.2 km/h 17.7 km/h 82.1% 0 mm 0 W/m2
22:44 21.1 °C 17.7 °C 1006.7 hPa Calm   17.7 km/h 81% 0 mm 0 W/m2
22:49 21.1 °C 17.7 °C 1006.7 hPa West 3.4 km/h 17.7 km/h 81% 0 mm 0 W/m2
22:54 20.9 °C 17.4 °C 1006.7 hPa WNW 1 km/h 17.7 km/h 80.1% 0 mm 0 W/m2
22:59 20.8 °C 17.2 °C 1006.7 hPa West 0.5 km/h 17.7 km/h 79.4% 0 mm 0 W/m2
23:04 20.7 °C 16.9 °C 1007 hPa West 0.6 km/h 17.7 km/h 79% 0 mm 0 W/m2
23:09 20.6 °C 16.4 °C 1007 hPa NW 1.3 km/h 9.7 km/h 77% 0 mm 0 W/m2
23:14 20.4 °C 15.7 °C 1007 hPa WNW 2.6 km/h 9.7 km/h 74.5% 0 mm 0 W/m2
23:19 20.3 °C 15.3 °C 1007 hPa WNW 2.6 km/h 9.7 km/h 73.4% 0 mm 0 W/m2
23:24 20.2 °C 15.2 °C 1007 hPa WNW 0.6 km/h 9.7 km/h 73% 0 mm 0 W/m2
23:29 20.1 °C 15.1 °C 1007 hPa WNW 0.3 km/h 9.7 km/h 73% 0 mm 0 W/m2
23:34 19.9 °C 15.1 °C 1007 hPa WNW 2.1 km/h 14.5 km/h 73.4% 0 mm 0 W/m2
23:39 19.8 °C 14.9 °C 1007 hPa WNW 1.3 km/h 14.5 km/h 73.3% 0 mm 0 W/m2
23:44 19.7 °C 14.9 °C 1007.3 hPa West 1.1 km/h 14.5 km/h 74% 0 mm 0 W/m2
23:49 19.6 °C 14.8 °C 1007 hPa WNW 1 km/h 14.5 km/h 74% 0 mm 0 W/m2
23:54 19.4 °C 14.6 °C 1007.3 hPa West 1.1 km/h 14.5 km/h 74% 0 mm 0 W/m2
23:59 19.2 °C 14.7 °C 1007 hPa WNW 3.5 km/h 14.5 km/h 74.9% 0 mm 0 W/m2
Hartford County Weather
Compliments of Weather Underground - 2 mb